Flight Track Log - Related Links

Times and Time Zones

All times are in EDT time to prevent confusion due to time zone crossing. See the FSR411 flight status page for this flight to view local times or setup timezone preferences in your user account.

Time Position Orientation Groundspeed Altitude Reporting Facility
EDT Latitude Longitude Course Direction KTS MPH feet Rate Location/Type
Tue 08:25:19 PM 40.0128 -88.2322 131° Southeast 159 183 41,000  Level Indianapolis Center
Tue 08:26:20 PM 39.9747 -88.1842 136° Southeast 190 219 41,000 -15,756 Level Indianapolis Center
Tue 08:27:22 PM 39.9356 -88.1242 130° Southeast 255 293 8,700 -14,537 Descending Indianapolis Center
Tue 08:28:23 PM 39.8844 -88.0428 129° Southeast 272 313 11,200 2,537 Climbing Indianapolis Center
Tue 08:29:25 PM 39.8200 -87.9483 132° Southeast 312 359 13,900 3,561 Climbing Indianapolis Center
Tue 08:30:00 PM 39.6725 -87.7421 131° Southeast  Level FlightAware Approximate
Tue 08:30:26 PM 39.7294 -87.8186 132° Southeast 382 440 18,500  Level Indianapolis Center
Tue 08:31:28 PM 39.6550 -87.7117 132° Southeast 397 457 22,100 2,976 Climbing Indianapolis Center
Tue 08:32:29 PM 39.5800 -87.6014 131° Southeast 405 466 24,600 2,244 Climbing Indianapolis Center
Tue 08:33:31 PM 39.5000 -87.4864 132° Southeast 422 486 26,700 2,000 Climbing Indianapolis Center
Tue 08:34:32 PM 39.4172 -87.3678 132° Southeast 439 505 28,700 1,902 Climbing Indianapolis Center
Tue 08:35:34 PM 39.3322 -87.2461 132° Southeast 452 520 30,600 1,854 Climbing Indianapolis Center
Tue 08:36:35 PM 39.2472 -87.1239 132° Southeast 457 526 32,500 2,066 Climbing Indianapolis Center
Tue 08:37:36 PM 39.1456 -86.9786 132° Southeast 457 526 34,800 1,951 Climbing Indianapolis Center
Tue 08:38:38 PM 39.0706 -86.8714 132° Southeast 455 524 36,500 1,610 Climbing Indianapolis Center
Tue 08:39:39 PM 38.9872 -86.7547 133° Southeast 446 513 38,100 1,366 Climbing Indianapolis Center
Tue 08:40:41 PM 38.9064 -86.6406 132° Southeast 435 501 39,300 976 Climbing Indianapolis Center
Tue 08:41:42 PM 38.8242 -86.5261 133° Southeast 434 499 40,100 590 Climbing Indianapolis Center
Tue 08:42:43 PM 38.7411 -86.4092 132° Southeast 434 499 40,500 439 Climbing Indianapolis Center
Tue 08:43:45 PM 38.6553 -86.2900 133° Southeast 445 512 41,000 244 Climbing Indianapolis Center
Tue 08:44:46 PM 38.5669 -86.1678 133° Southeast 455 524 41,000  Level Indianapolis Center
Tue 08:45:47 PM 38.4556 -86.0142 133° Southeast 472 543 41,000  Level Indianapolis Center
Tue 08:46:48 PM 38.3594 -85.8817 133° Southeast 495 570 41,000  Level Indianapolis Center
Tue 08:47:50 PM 38.2636 -85.7497 133° Southeast 501 577 41,000  Level Indianapolis Center
Tue 08:48:51 PM 38.1669 -85.6181 133° Southeast 501 577 41,000  Level Indianapolis Center
Tue 08:49:52 PM 38.0683 -85.4839 133° Southeast 509 586 41,000  Level Indianapolis Center
Tue 08:50:53 PM 37.9697 -85.3497 133° Southeast 514 592 41,000  Level Indianapolis Center
Tue 08:51:55 PM 37.8711 -85.2161 133° Southeast 515 593 41,000  Level Indianapolis Center
Tue 08:52:56 PM 37.7686 -85.0806 134° Southeast 519 597 41,000 -443 Level Indianapolis Center
Tue 08:53:57 PM 37.6686 -84.9483 134° Southeast 519 597 40,100 -934 Descending Indianapolis Center
Tue 08:54:58 PM 37.5717 -84.8181 133° Southeast 513 590 39,100 -976 Descending Indianapolis Center
Tue 08:56:00 PM 37.4756 -84.6931 134° Southeast 502 578 38,100 -976 Descending Indianapolis Center
Tue 08:57:01 PM 37.3817 -84.5667 133° Southeast 498 573 37,100 -1,033 Descending Indianapolis Center
Tue 08:58:02 PM 37.2697 -84.4194 134° Southeast 498 573 36,000 -1,033 Descending Indianapolis Center
Tue 08:59:03 PM 37.1717 -84.2914 134° Southeast 502 578 35,000 -976 Descending Indianapolis Center
Tue 09:00:05 PM 37.0728 -84.1611 134° Southeast 512 589 34,000 -976 Descending Indianapolis Center
Tue 09:01:06 PM 36.9728 -84.0275 133° Southeast 521 600 33,000 -1,328 Descending Indianapolis Center
Tue 09:02:07 PM 36.8750 -83.8894 131° Southeast 526 605 31,300 -1,820 Descending Indianapolis Center
Tue 09:03:08 PM 36.7769 -83.7533 132° Southeast 526 605 29,300 -1,756 Descending Indianapolis Center
Tue 09:04:10 PM 36.6811 -83.6208 132° Southeast 524 603 27,700 -1,366 Descending Indianapolis Center
Tue 09:05:11 PM 36.5850 -83.4892 132° Southeast 521 600 26,500 -1,279 Descending Indianapolis Center
Tue 09:06:12 PM 36.4736 -83.3361 132° Southeast 518 596 25,100 -1,279 Descending Indianapolis Center
Tue 09:07:13 PM 36.3806 -83.2092 132° Southeast 507 583 23,900 -1,149 Descending Indianapolis Center
Tue 09:07:46 PM 36.3261 -83.1419 135° Southeast 512 589 23,300 -581 Descending Atlanta Center
Tue 09:08:46 PM 36.2375 -83.0194 132° Southeast 495 570 23,000 -300 Descending Atlanta Center
Tue 09:09:46 PM 36.1469 -82.8969 132° Southeast 487 560 22,700 -650 Descending Atlanta Center
Tue 09:10:46 PM 36.0603 -82.7803 133° Southeast 476 548 21,700 -1,000 Descending Atlanta Center
Tue 09:11:46 PM 35.9631 -82.6764 139° Southeast 462 532 20,700 -1,000 Descending Atlanta Center
Tue 09:12:46 PM 35.8558 -82.6014 150° Southeast 457 526 19,700 -1,550 Descending Atlanta Center
Tue 09:13:46 PM 35.7547 -82.5264 149° Southeast 436 502 17,600 -2,000 Descending Atlanta Center
Tue 09:14:46 PM 35.6622 -82.4617 150° Southeast 431 496 15,700 -2,050 Descending Atlanta Center
Tue 09:15:46 PM 35.5653 -82.3869 148° Southeast 419 482 13,500 -2,200 Descending Atlanta Center
Tue 09:16:46 PM 35.4725 -82.3200 150° Southeast 406 467 11,300 -1,500 Descending Atlanta Center
Tue 09:17:46 PM 35.3925 -82.2681 152° Southeast 367 422 10,500 -900 Descending Atlanta Center
Tue 09:18:46 PM 35.3172 -82.2622 176° South 305 351 9,500 -1,000 Descending Atlanta Center
Tue 09:19:46 PM 35.2422 -82.2586 178° South 285 328 8,500 -900 Descending Atlanta Center
Tue 09:20:46 PM 35.1669 -82.2450 172° South 280 322 7,700 -750 Descending Atlanta Center
Tue 09:21:46 PM 35.0917 -82.2364 175° South 274 315 7,000 -700 Descending Atlanta Center
Tue 09:22:46 PM 35.0225 -82.2253 173° South 269 310 6,300 -500 Descending Atlanta Center
Tue 09:23:46 PM 34.9536 -82.2142 172° South 263 303 6,000 -150 Descending Atlanta Center
Tue 09:24:46 PM 34.8742 -82.2033 174° South 263 303 6,000 -250 Level Atlanta Center
Tue 09:25:46 PM 34.8053 -82.2022 179° South 257 296 5,500 -1,450 Descending Atlanta Center
Tue 09:26:46 PM 34.7389 -82.2289 198° South 251 289 3,100 -1,250 Descending Atlanta Center
Tue 09:27:46 PM 34.6808 -82.2503 197° South 245 282 3,000 -50 Descending Atlanta Center
Tue 09:28:46 PM 34.6503 -82.3017 234° Southwest 196 226 3,000  Level Atlanta Center
Tue 09:29:46 PM 34.6822 -82.3464 311° West 144 166 3,000  Level Atlanta Center
Tue 09:30:46 PM 34.7281 -82.3581 348° North 127 146 3,000 -150 Level Atlanta Center
Tue 09:31:46 PM 34.7572 -82.3550 North 127 146 2,700 8,000 Descending Atlanta Center
Tue 09:32:46 PM 34.7892 -82.3872 320° Northwest 127 146 19,000 16,300 Climbing Atlanta Center
Tue 09:34:00 PM 34.8333 -82.3500 North  Level FlightAware Approximate
Tue 09:41:00 PM 34.8479 -82.3500 North  Level Estimated
Tue 09:42:00 PM 34.8479 -82.3500 111° Southeast  Level Estimated
Tue 09:43:00 PM 34.8479 -82.3500 236° Southwest  Level Estimated
Tue 09:44:00 PM 34.8479 -82.3500 North  Level Estimated
Tue 09:45:00 PM 34.8479 -82.3500 North  Level Estimated
Tue 09:46:00 PM 34.8479 -82.3500 111° Southeast  Level Estimated
Tue 09:47:00 PM 34.8479 -82.3500 236° Southwest  Level Estimated
Tue 09:48:00 PM 34.8479 -82.3500 North  Level Estimated
Tue 09:49:00 PM 34.8479 -82.3500 North  Level Estimated

Login

Don't have an account? Register now (free) for customized features, flight alerts, and more!